YGLK weather

Glenbrook NPWS Heliport
Glenbrook National Parks & Wildlife Service, New South Wales, Australia

Public forecast

Using degrees Celsius for public forecast. Weather courtesy of forecast.io.

METAR (pilot weather report)

Closest report is RAAF Base Richmond, 14.2 nm (26.2 km) NE. Retrieved 2019/04/25 21:30 UTC (0 seconds ago):

YSRI 252130Z AUTO 00000KT 9999 // OVC125 16/16 Q1015 RF00.0/000.0

TAF (pilot weather forecast)

Closest forecast is RAAF Base Richmond, 14.2 nm (26.2 km) NE. Retrieved 2019/04/25 18:36 UTC (3 hours ago):

TAF YSRI 251714Z 2518/2618 VRB03KT CAVOK FM260000 29012KT CAVOK FM260700 25008KT CAVOK PROB30 2518/2522 0200 FG OVC001